sensor_id;sensor_type;location;lat;lon;timestamp;P1;durP1;ratioP1;P2;durP2;ratioP2
47882;SDS011;37739;50.350;7.578;2022-08-19T00:00:54;10.53;;;9.77;;
47882;SDS011;37739;50.350;7.578;2022-08-19T00:03:21;10.30;;;9.60;;
47882;SDS011;37739;50.350;7.578;2022-08-19T00:05:46;9.77;;;9.07;;
47882;SDS011;37739;50.350;7.578;2022-08-19T00:08:12;11.23;;;10.43;;
47882;SDS011;37739;50.350;7.578;2022-08-19T00:10:37;10.13;;;9.43;;
47882;SDS011;37739;50.350;7.578;2022-08-19T00:13:02;10.30;;;9.60;;
47882;SDS011;37739;50.350;7.578;2022-08-19T00:15:30;11.27;;;10.37;;
47882;SDS011;37739;50.350;7.578;2022-08-19T00:17:58;11.70;;;10.80;;
47882;SDS011;37739;50.350;7.578;2022-08-19T00:20:24;11.40;;;10.60;;
47882;SDS011;37739;50.350;7.578;2022-08-19T00:22:49;9.70;;;8.90;;
47882;SDS011;37739;50.350;7.578;2022-08-19T00:25:15;10.57;;;9.77;;
47882;SDS011;37739;50.350;7.578;2022-08-19T00:27:45;8.73;;;8.13;;
47882;SDS011;37739;50.350;7.578;2022-08-19T00:30:13;9.43;;;8.60;;
47882;SDS011;37739;50.350;7.578;2022-08-19T00:32:39;10.73;;;8.20;;
47882;SDS011;37739;50.350;7.578;2022-08-19T00:35:04;8.83;;;8.17;;
47882;SDS011;37739;50.350;7.578;2022-08-19T00:37:32;9.10;;;8.40;;
47882;SDS011;37739;50.350;7.578;2022-08-19T00:39:59;8.40;;;7.80;;
47882;SDS011;37739;50.350;7.578;2022-08-19T00:42:25;9.33;;;8.63;;
47882;SDS011;37739;50.350;7.578;2022-08-19T00:44:53;8.40;;;7.90;;
47882;SDS011;37739;50.350;7.578;2022-08-19T00:47:21;9.30;;;8.60;;
47882;SDS011;37739;50.350;7.578;2022-08-19T00:49:47;8.80;;;8.20;;
47882;SDS011;37739;50.350;7.578;2022-08-19T00:52:33;8.60;;;8.00;;
47882;SDS011;37739;50.350;7.578;2022-08-19T00:55:05;8.70;;;8.10;;
47882;SDS011;37739;50.350;7.578;2022-08-19T00:57:36;8.40;;;7.80;;
47882;SDS011;37739;50.350;7.578;2022-08-19T01:00:09;8.87;;;8.27;;
47882;SDS011;37739;50.350;7.578;2022-08-19T01:02:37;9.90;;;9.20;;
47882;SDS011;37739;50.350;7.578;2022-08-19T01:05:05;11.27;;;10.37;;
47882;SDS011;37739;50.350;7.578;2022-08-19T01:07:33;10.17;;;9.47;;
47882;SDS011;37739;50.350;7.578;2022-08-19T01:09:59;10.07;;;9.30;;
47882;SDS011;37739;50.350;7.578;2022-08-19T01:12:26;10.10;;;9.30;;
47882;SDS011;37739;50.350;7.578;2022-08-19T01:14:51;9.80;;;9.10;;
47882;SDS011;37739;50.350;7.578;2022-08-19T01:17:17;10.60;;;9.80;;
47882;SDS011;37739;50.350;7.578;2022-08-19T01:19:46;9.50;;;8.80;;
47882;SDS011;37739;50.350;7.578;2022-08-19T01:25:00;9.20;;;8.60;;
47882;SDS011;37739;50.350;7.578;2022-08-19T01:27:26;9.37;;;8.67;;
47882;SDS011;37739;50.350;7.578;2022-08-19T01:29:51;10.00;;;9.20;;
47882;SDS011;37739;50.350;7.578;2022-08-19T01:32:19;9.70;;;8.90;;
47882;SDS011;37739;50.350;7.578;2022-08-19T01:34:45;8.83;;;8.13;;
47882;SDS011;37739;50.350;7.578;2022-08-19T01:37:13;8.30;;;7.70;;
47882;SDS011;37739;50.350;7.578;2022-08-19T01:39:42;8.67;;;7.97;;
47882;SDS011;37739;50.350;7.578;2022-08-19T01:42:08;8.70;;;8.10;;
47882;SDS011;37739;50.350;7.578;2022-08-19T01:44:37;9.00;;;8.40;;
47882;SDS011;37739;50.350;7.578;2022-08-19T01:47:08;8.80;;;8.00;;
47882;SDS011;37739;50.350;7.578;2022-08-19T01:49:34;9.00;;;8.30;;
47882;SDS011;37739;50.350;7.578;2022-08-19T01:52:00;9.87;;;9.17;;
47882;SDS011;37739;50.350;7.578;2022-08-19T01:54:30;8.87;;;8.27;;
47882;SDS011;37739;50.350;7.578;2022-08-19T01:57:01;8.97;;;8.27;;
47882;SDS011;37739;50.350;7.578;2022-08-19T01:59:30;9.10;;;8.43;;
47882;SDS011;37739;50.350;7.578;2022-08-19T02:01:56;9.80;;;9.10;;
47882;SDS011;37739;50.350;7.578;2022-08-19T02:04:22;8.67;;;8.03;;
47882;SDS011;37739;50.350;7.578;2022-08-19T02:06:48;8.50;;;7.90;;
47882;SDS011;37739;50.350;7.578;2022-08-19T02:09:13;9.13;;;8.50;;
47882;SDS011;37739;50.350;7.578;2022-08-19T02:11:41;8.73;;;8.13;;
47882;SDS011;37739;50.350;7.578;2022-08-19T02:14:07;9.50;;;8.80;;
47882;SDS011;37739;50.350;7.578;2022-08-19T02:16:34;8.30;;;7.50;;
47882;SDS011;37739;50.350;7.578;2022-08-19T02:19:00;9.10;;;8.40;;
47882;SDS011;37739;50.350;7.578;2022-08-19T02:21:28;8.60;;;8.00;;
47882;SDS011;37739;50.350;7.578;2022-08-19T02:23:54;9.00;;;8.30;;
47882;SDS011;37739;50.350;7.578;2022-08-19T02:26:23;8.80;;;8.20;;
47882;SDS011;37739;50.350;7.578;2022-08-19T02:28:49;9.80;;;9.10;;
47882;SDS011;37739;50.350;7.578;2022-08-19T02:31:17;9.17;;;8.47;;
47882;SDS011;37739;50.350;7.578;2022-08-19T02:33:47;9.17;;;8.57;;
47882;SDS011;37739;50.350;7.578;2022-08-19T02:36:13;9.00;;;8.30;;
47882;SDS011;37739;50.350;7.578;2022-08-19T02:38:43;8.00;;;7.40;;
47882;SDS011;37739;50.350;7.578;2022-08-19T02:41:20;8.90;;;8.30;;
47882;SDS011;37739;50.350;7.578;2022-08-19T02:43:49;9.03;;;8.33;;
47882;SDS011;37739;50.350;7.578;2022-08-19T02:46:21;9.20;;;8.50;;
47882;SDS011;37739;50.350;7.578;2022-08-19T02:48:49;8.97;;;8.27;;
47882;SDS011;37739;50.350;7.578;2022-08-19T02:51:23;8.60;;;8.00;;
47882;SDS011;37739;50.350;7.578;2022-08-19T02:53:52;8.60;;;7.90;;
47882;SDS011;37739;50.350;7.578;2022-08-19T02:56:19;8.70;;;8.10;;
47882;SDS011;37739;50.350;7.578;2022-08-19T02:58:44;8.60;;;7.90;;
47882;SDS011;37739;50.350;7.578;2022-08-19T03:01:11;8.97;;;8.27;;
47882;SDS011;37739;50.350;7.578;2022-08-19T03:03:50;9.03;;;8.33;;
47882;SDS011;37739;50.350;7.578;2022-08-19T03:06:16;8.57;;;7.80;;
47882;SDS011;37739;50.350;7.578;2022-08-19T03:08:46;9.47;;;8.87;;
47882;SDS011;37739;50.350;7.578;2022-08-19T03:13:48;9.17;;;8.47;;
47882;SDS011;37739;50.350;7.578;2022-08-19T03:16:19;9.70;;;9.00;;
47882;SDS011;37739;50.350;7.578;2022-08-19T03:18:51;8.60;;;8.00;;
47882;SDS011;37739;50.350;7.578;2022-08-19T03:21:18;9.30;;;8.70;;
47882;SDS011;37739;50.350;7.578;2022-08-19T03:23:46;8.33;;;7.63;;
47882;SDS011;37739;50.350;7.578;2022-08-19T03:26:12;8.30;;;7.70;;
47882;SDS011;37739;50.350;7.578;2022-08-19T03:28:43;8.97;;;8.30;;
47882;SDS011;37739;50.350;7.578;2022-08-19T03:31:17;9.40;;;8.70;;
47882;SDS011;37739;50.350;7.578;2022-08-19T03:33:46;9.47;;;8.67;;
47882;SDS011;37739;50.350;7.578;2022-08-19T03:38:39;8.47;;;7.87;;
47882;SDS011;37739;50.350;7.578;2022-08-19T03:41:10;7.90;;;7.20;;
47882;SDS011;37739;50.350;7.578;2022-08-19T03:43:38;8.17;;;7.67;;
47882;SDS011;37739;50.350;7.578;2022-08-19T03:46:06;8.30;;;7.70;;
47882;SDS011;37739;50.350;7.578;2022-08-19T03:48:35;9.73;;;9.00;;
47882;SDS011;37739;50.350;7.578;2022-08-19T03:51:04;9.67;;;8.87;;
47882;SDS011;37739;50.350;7.578;2022-08-19T03:53:31;9.00;;;8.40;;
47882;SDS011;37739;50.350;7.578;2022-08-19T03:56:02;10.00;;;9.20;;
47882;SDS011;37739;50.350;7.578;2022-08-19T03:58:28;9.40;;;8.50;;
47882;SDS011;37739;50.350;7.578;2022-08-19T04:00:57;10.37;;;9.37;;
47882;SDS011;37739;50.350;7.578;2022-08-19T04:03:23;9.23;;;8.53;;
47882;SDS011;37739;50.350;7.578;2022-08-19T04:05:54;8.17;;;7.47;;
47882;SDS011;37739;50.350;7.578;2022-08-19T04:08:21;8.00;;;7.50;;
47882;SDS011;37739;50.350;7.578;2022-08-19T04:10:47;8.83;;;8.13;;
47882;SDS011;37739;50.350;7.578;2022-08-19T04:13:14;9.33;;;8.53;;
47882;SDS011;37739;50.350;7.578;2022-08-19T04:15:41;9.23;;;8.40;;
47882;SDS011;37739;50.350;7.578;2022-08-19T04:18:11;9.20;;;8.50;;
47882;SDS011;37739;50.350;7.578;2022-08-19T04:20:40;9.03;;;8.17;;
47882;SDS011;37739;50.350;7.578;2022-08-19T04:23:07;9.77;;;9.07;;
47882;SDS011;37739;50.350;7.578;2022-08-19T04:25:37;9.97;;;9.23;;
47882;SDS011;37739;50.350;7.578;2022-08-19T04:28:06;9.77;;;9.07;;
47882;SDS011;37739;50.350;7.578;2022-08-19T04:30:41;9.93;;;9.23;;
47882;SDS011;37739;50.350;7.578;2022-08-19T04:33:08;10.40;;;9.60;;
47882;SDS011;37739;50.350;7.578;2022-08-19T04:35:39;8.83;;;8.23;;
47882;SDS011;37739;50.350;7.578;2022-08-19T04:38:06;9.90;;;9.20;;
47882;SDS011;37739;50.350;7.578;2022-08-19T04:40:34;10.37;;;9.60;;
47882;SDS011;37739;50.350;7.578;2022-08-19T04:43:24;10.60;;;9.80;;
47882;SDS011;37739;50.350;7.578;2022-08-19T04:45:52;10.13;;;9.37;;
47882;SDS011;37739;50.350;7.578;2022-08-19T04:48:19;10.77;;;10.03;;
47882;SDS011;37739;50.350;7.578;2022-08-19T04:50:51;11.33;;;10.43;;
47882;SDS011;37739;50.350;7.578;2022-08-19T04:53:27;11.00;;;10.20;;
47882;SDS011;37739;50.350;7.578;2022-08-19T04:55:54;11.10;;;10.30;;
47882;SDS011;37739;50.350;7.578;2022-08-19T04:58:21;11.10;;;10.30;;
47882;SDS011;37739;50.350;7.578;2022-08-19T05:00:48;11.57;;;10.67;;
47882;SDS011;37739;50.350;7.578;2022-08-19T05:03:18;10.77;;;9.97;;
47882;SDS011;37739;50.350;7.578;2022-08-19T05:05:44;10.60;;;9.80;;
47882;SDS011;37739;50.350;7.578;2022-08-19T05:08:13;9.20;;;8.50;;
47882;SDS011;37739;50.350;7.578;2022-08-19T05:10:44;9.83;;;9.13;;
47882;SDS011;37739;50.350;7.578;2022-08-19T05:13:10;10.10;;;9.40;;
47882;SDS011;37739;50.350;7.578;2022-08-19T05:15:38;10.47;;;9.63;;
47882;SDS011;37739;50.350;7.578;2022-08-19T05:18:05;10.63;;;9.83;;
47882;SDS011;37739;50.350;7.578;2022-08-19T05:20:54;9.93;;;8.93;;
47882;SDS011;37739;50.350;7.578;2022-08-19T05:23:38;10.50;;;9.60;;
47882;SDS011;37739;50.350;7.578;2022-08-19T05:26:06;10.40;;;9.70;;
47882;SDS011;37739;50.350;7.578;2022-08-19T05:28:35;9.80;;;9.00;;
47882;SDS011;37739;50.350;7.578;2022-08-19T05:31:01;10.90;;;10.00;;
47882;SDS011;37739;50.350;7.578;2022-08-19T05:33:28;9.83;;;9.10;;
47882;SDS011;37739;50.350;7.578;2022-08-19T05:35:57;10.17;;;9.37;;
47882;SDS011;37739;50.350;7.578;2022-08-19T05:38:23;11.10;;;10.00;;
47882;SDS011;37739;50.350;7.578;2022-08-19T05:40:49;9.90;;;9.20;;
47882;SDS011;37739;50.350;7.578;2022-08-19T05:43:14;8.97;;;8.30;;
47882;SDS011;37739;50.350;7.578;2022-08-19T05:45:42;8.77;;;8.07;;
47882;SDS011;37739;50.350;7.578;2022-08-19T05:48:09;8.70;;;8.00;;
47882;SDS011;37739;50.350;7.578;2022-08-19T05:50:38;8.90;;;8.30;;
47882;SDS011;37739;50.350;7.578;2022-08-19T05:53:05;11.20;;;10.40;;
47882;SDS011;37739;50.350;7.578;2022-08-19T05:55:30;12.03;;;11.13;;
47882;SDS011;37739;50.350;7.578;2022-08-19T05:57:58;12.20;;;11.13;;
47882;SDS011;37739;50.350;7.578;2022-08-19T06:00:26;10.00;;;9.20;;
47882;SDS011;37739;50.350;7.578;2022-08-19T06:02:54;9.67;;;8.97;;
47882;SDS011;37739;50.350;7.578;2022-08-19T06:05:24;10.73;;;9.83;;
47882;SDS011;37739;50.350;7.578;2022-08-19T06:07:49;10.80;;;10.00;;
47882;SDS011;37739;50.350;7.578;2022-08-19T06:10:15;9.47;;;8.77;;
47882;SDS011;37739;50.350;7.578;2022-08-19T06:12:40;9.43;;;8.73;;
47882;SDS011;37739;50.350;7.578;2022-08-19T06:15:07;9.50;;;8.80;;
47882;SDS011;37739;50.350;7.578;2022-08-19T06:17:37;9.23;;;8.53;;
47882;SDS011;37739;50.350;7.578;2022-08-19T06:20:07;8.20;;;7.57;;
47882;SDS011;37739;50.350;7.578;2022-08-19T06:22:40;8.70;;;8.00;;
47882;SDS011;37739;50.350;7.578;2022-08-19T06:25:08;9.30;;;8.67;;
47882;SDS011;37739;50.350;7.578;2022-08-19T06:27:37;9.10;;;8.50;;
47882;SDS011;37739;50.350;7.578;2022-08-19T06:30:03;8.50;;;7.90;;
47882;SDS011;37739;50.350;7.578;2022-08-19T06:32:29;9.13;;;8.37;;
47882;SDS011;37739;50.350;7.578;2022-08-19T06:34:55;8.33;;;7.63;;
47882;SDS011;37739;50.350;7.578;2022-08-19T06:37:23;9.90;;;8.60;;
47882;SDS011;37739;50.350;7.578;2022-08-19T06:39:49;8.60;;;7.93;;
47882;SDS011;37739;50.350;7.578;2022-08-19T06:42:15;9.03;;;8.33;;
47882;SDS011;37739;50.350;7.578;2022-08-19T06:44:46;8.00;;;7.40;;
47882;SDS011;37739;50.350;7.578;2022-08-19T06:47:17;9.40;;;8.80;;
47882;SDS011;37739;50.350;7.578;2022-08-19T06:49:44;11.63;;;10.67;;
47882;SDS011;37739;50.350;7.578;2022-08-19T06:52:09;9.10;;;8.43;;
47882;SDS011;37739;50.350;7.578;2022-08-19T06:54:37;8.87;;;8.17;;
47882;SDS011;37739;50.350;7.578;2022-08-19T06:57:04;7.20;;;6.70;;
47882;SDS011;37739;50.350;7.578;2022-08-19T06:59:34;9.10;;;8.40;;
47882;SDS011;37739;50.350;7.578;2022-08-19T07:02:05;12.03;;;11.13;;
47882;SDS011;37739;50.350;7.578;2022-08-19T07:04:32;10.40;;;9.60;;
47882;SDS011;37739;50.350;7.578;2022-08-19T07:07:05;12.57;;;11.47;;
47882;SDS011;37739;50.350;7.578;2022-08-19T07:09:35;11.93;;;11.03;;
47882;SDS011;37739;50.350;7.578;2022-08-19T07:12:02;9.13;;;8.43;;
47882;SDS011;37739;50.350;7.578;2022-08-19T07:14:29;14.10;;;12.70;;
47882;SDS011;37739;50.350;7.578;2022-08-19T07:16:55;10.70;;;9.80;;
47882;SDS011;37739;50.350;7.578;2022-08-19T07:19:25;11.73;;;10.90;;
47882;SDS011;37739;50.350;7.578;2022-08-19T07:21:54;15.93;;;14.63;;
47882;SDS011;37739;50.350;7.578;2022-08-19T07:24:21;14.17;;;13.17;;
47882;SDS011;37739;50.350;7.578;2022-08-19T07:26:51;12.03;;;11.03;;
47882;SDS011;37739;50.350;7.578;2022-08-19T07:29:22;9.50;;;8.90;;
47882;SDS011;37739;50.350;7.578;2022-08-19T07:31:49;10.80;;;9.80;;
47882;SDS011;37739;50.350;7.578;2022-08-19T07:34:17;13.37;;;12.37;;
47882;SDS011;37739;50.350;7.578;2022-08-19T07:36:46;11.27;;;10.37;;
47882;SDS011;37739;50.350;7.578;2022-08-19T07:39:14;12.73;;;10.87;;
47882;SDS011;37739;50.350;7.578;2022-08-19T07:41:44;11.00;;;10.20;;
47882;SDS011;37739;50.350;7.578;2022-08-19T07:44:14;12.77;;;11.57;;
47882;SDS011;37739;50.350;7.578;2022-08-19T07:46:42;15.33;;;13.90;;
47882;SDS011;37739;50.350;7.578;2022-08-19T07:49:12;10.30;;;9.40;;
47882;SDS011;37739;50.350;7.578;2022-08-19T07:51:48;14.67;;;13.17;;
47882;SDS011;37739;50.350;7.578;2022-08-19T07:54:20;14.47;;;13.30;;
47882;SDS011;37739;50.350;7.578;2022-08-19T07:56:49;11.90;;;10.90;;
47882;SDS011;37739;50.350;7.578;2022-08-19T07:59:15;12.13;;;11.13;;
47882;SDS011;37739;50.350;7.578;2022-08-19T08:01:46;16.90;;;15.50;;
47882;SDS011;37739;50.350;7.578;2022-08-19T08:04:12;17.67;;;16.07;;
47882;SDS011;37739;50.350;7.578;2022-08-19T08:06:59;18.63;;;17.10;;
47882;SDS011;37739;50.350;7.578;2022-08-19T08:09:43;19.27;;;17.73;;
47882;SDS011;37739;50.350;7.578;2022-08-19T08:12:13;18.33;;;16.73;;
47882;SDS011;37739;50.350;7.578;2022-08-19T08:14:43;23.10;;;21.00;;
47882;SDS011;37739;50.350;7.578;2022-08-19T08:17:14;18.63;;;17.07;;
47882;SDS011;37739;50.350;7.578;2022-08-19T08:19:44;20.97;;;19.17;;
47882;SDS011;37739;50.350;7.578;2022-08-19T08:22:10;19.20;;;17.60;;
47882;SDS011;37739;50.350;7.578;2022-08-19T08:24:57;16.53;;;15.03;;
47882;SDS011;37739;50.350;7.578;2022-08-19T08:27:28;16.13;;;14.83;;
47882;SDS011;37739;50.350;7.578;2022-08-19T08:29:56;18.80;;;17.10;;
47882;SDS011;37739;50.350;7.578;2022-08-19T08:32:21;13.90;;;12.70;;
47882;SDS011;37739;50.350;7.578;2022-08-19T08:34:47;14.17;;;12.90;;
47882;SDS011;37739;50.350;7.578;2022-08-19T08:37:14;17.57;;;16.07;;
47882;SDS011;37739;50.350;7.578;2022-08-19T08:39:40;15.47;;;14.23;;
47882;SDS011;37739;50.350;7.578;2022-08-19T08:42:11;19.07;;;17.47;;
47882;SDS011;37739;50.350;7.578;2022-08-19T08:44:58;17.40;;;15.80;;
47882;SDS011;37739;50.350;7.578;2022-08-19T08:47:28;18.60;;;17.10;;
47882;SDS011;37739;50.350;7.578;2022-08-19T08:50:04;16.97;;;15.57;;
47882;SDS011;37739;50.350;7.578;2022-08-19T08:52:34;15.77;;;14.50;;
47882;SDS011;37739;50.350;7.578;2022-08-19T08:55:13;15.30;;;14.10;;
47882;SDS011;37739;50.350;7.578;2022-08-19T09:03:03;14.40;;;13.20;;
47882;SDS011;37739;50.350;7.578;2022-08-19T09:11:25;15.20;;;13.90;;
47882;SDS011;37739;50.350;7.578;2022-08-19T09:16:30;12.90;;;11.90;;
47882;SDS011;37739;50.350;7.578;2022-08-19T09:18:57;14.60;;;13.40;;
47882;SDS011;37739;50.350;7.578;2022-08-19T09:21:28;12.93;;;11.73;;
47882;SDS011;37739;50.350;7.578;2022-08-19T09:23:53;14.20;;;13.00;;
47882;SDS011;37739;50.350;7.578;2022-08-19T09:26:20;12.93;;;11.87;;
47882;SDS011;37739;50.350;7.578;2022-08-19T09:28:48;12.43;;;11.43;;
47882;SDS011;37739;50.350;7.578;2022-08-19T09:31:24;11.97;;;10.70;;
47882;SDS011;37739;50.350;7.578;2022-08-19T09:33:51;12.07;;;11.00;;
47882;SDS011;37739;50.350;7.578;2022-08-19T09:36:23;12.53;;;11.43;;
47882;SDS011;37739;50.350;7.578;2022-08-19T09:38:50;10.70;;;9.67;;
47882;SDS011;37739;50.350;7.578;2022-08-19T09:41:22;9.33;;;8.53;;
47882;SDS011;37739;50.350;7.578;2022-08-19T09:43:50;9.90;;;9.10;;
47882;SDS011;37739;50.350;7.578;2022-08-19T09:46:18;9.87;;;8.70;;
47882;SDS011;37739;50.350;7.578;2022-08-19T09:48:47;9.53;;;8.83;;
47882;SDS011;37739;50.350;7.578;2022-08-19T09:51:21;9.67;;;8.67;;
47882;SDS011;37739;50.350;7.578;2022-08-19T09:53:49;8.30;;;7.50;;
47882;SDS011;37739;50.350;7.578;2022-08-19T09:56:17;7.27;;;6.67;;
47882;SDS011;37739;50.350;7.578;2022-08-19T09:58:43;10.70;;;8.83;;
47882;SDS011;37739;50.350;7.578;2022-08-19T10:01:22;7.83;;;7.23;;
47882;SDS011;37739;50.350;7.578;2022-08-19T10:03:55;7.50;;;7.00;;
47882;SDS011;37739;50.350;7.578;2022-08-19T10:06:24;8.20;;;7.50;;
47882;SDS011;37739;50.350;7.578;2022-08-19T10:08:55;7.80;;;7.20;;
47882;SDS011;37739;50.350;7.578;2022-08-19T10:11:22;7.63;;;6.70;;
47882;SDS011;37739;50.350;7.578;2022-08-19T10:13:48;7.37;;;6.73;;
47882;SDS011;37739;50.350;7.578;2022-08-19T10:16:19;8.87;;;8.07;;
47882;SDS011;37739;50.350;7.578;2022-08-19T10:18:47;7.80;;;7.20;;
47882;SDS011;37739;50.350;7.578;2022-08-19T10:21:15;7.50;;;6.80;;
47882;SDS011;37739;50.350;7.578;2022-08-19T10:23:45;7.27;;;6.77;;
47882;SDS011;37739;50.350;7.578;2022-08-19T10:26:13;8.90;;;8.20;;
47882;SDS011;37739;50.350;7.578;2022-08-19T10:28:42;7.60;;;6.90;;
47882;SDS011;37739;50.350;7.578;2022-08-19T10:31:08;8.83;;;8.10;;
47882;SDS011;37739;50.350;7.578;2022-08-19T10:33:36;7.53;;;6.83;;
47882;SDS011;37739;50.350;7.578;2022-08-19T10:36:04;8.90;;;8.00;;
47882;SDS011;37739;50.350;7.578;2022-08-19T10:38:34;8.30;;;7.60;;
47882;SDS011;37739;50.350;7.578;2022-08-19T10:41:14;7.93;;;7.33;;
47882;SDS011;37739;50.350;7.578;2022-08-19T10:43:49;6.83;;;6.33;;
47882;SDS011;37739;50.350;7.578;2022-08-19T10:46:17;8.07;;;7.37;;
47882;SDS011;37739;50.350;7.578;2022-08-19T10:48:46;6.43;;;6.00;;
47882;SDS011;37739;50.350;7.578;2022-08-19T10:51:11;6.60;;;6.10;;
47882;SDS011;37739;50.350;7.578;2022-08-19T10:53:56;7.37;;;6.77;;
47882;SDS011;37739;50.350;7.578;2022-08-19T10:56:24;8.30;;;7.60;;
47882;SDS011;37739;50.350;7.578;2022-08-19T10:59:12;6.93;;;6.43;;
47882;SDS011;37739;50.350;7.578;2022-08-19T11:01:38;7.43;;;6.70;;
47882;SDS011;37739;50.350;7.578;2022-08-19T11:04:07;7.23;;;6.73;;
47882;SDS011;37739;50.350;7.578;2022-08-19T11:06:36;5.97;;;5.57;;
47882;SDS011;37739;50.350;7.578;2022-08-19T11:09:03;6.30;;;5.90;;
47882;SDS011;37739;50.350;7.578;2022-08-19T11:11:29;7.83;;;6.77;;
47882;SDS011;37739;50.350;7.578;2022-08-19T11:13:55;7.37;;;6.87;;
47882;SDS011;37739;50.350;7.578;2022-08-19T11:16:23;7.57;;;6.97;;
47882;SDS011;37739;50.350;7.578;2022-08-19T11:18:54;6.53;;;6.00;;
47882;SDS011;37739;50.350;7.578;2022-08-19T11:21:24;6.57;;;6.07;;
47882;SDS011;37739;50.350;7.578;2022-08-19T11:23:57;6.97;;;6.40;;
47882;SDS011;37739;50.350;7.578;2022-08-19T11:26:25;6.73;;;6.33;;
47882;SDS011;37739;50.350;7.578;2022-08-19T11:28:51;7.63;;;7.10;;
47882;SDS011;37739;50.350;7.578;2022-08-19T11:31:19;4.67;;;4.37;;
47882;SDS011;37739;50.350;7.578;2022-08-19T11:33:47;6.60;;;6.10;;
47882;SDS011;37739;50.350;7.578;2022-08-19T11:36:15;5.47;;;5.07;;
47882;SDS011;37739;50.350;7.578;2022-08-19T11:38:47;4.83;;;4.53;;
47882;SDS011;37739;50.350;7.578;2022-08-19T11:41:14;5.87;;;5.47;;
47882;SDS011;37739;50.350;7.578;2022-08-19T11:43:44;5.40;;;4.90;;
47882;SDS011;37739;50.350;7.578;2022-08-19T11:46:13;6.37;;;5.77;;
47882;SDS011;37739;50.350;7.578;2022-08-19T11:48:42;6.17;;;5.77;;
47882;SDS011;37739;50.350;7.578;2022-08-19T11:51:09;5.97;;;5.57;;
47882;SDS011;37739;50.350;7.578;2022-08-19T11:53:39;5.70;;;5.30;;
47882;SDS011;37739;50.350;7.578;2022-08-19T11:56:05;6.10;;;5.70;;
47882;SDS011;37739;50.350;7.578;2022-08-19T11:58:37;6.10;;;5.60;;
47882;SDS011;37739;50.350;7.578;2022-08-19T12:01:13;5.30;;;5.00;;
47882;SDS011;37739;50.350;7.578;2022-08-19T12:03:44;5.87;;;5.37;;
47882;SDS011;37739;50.350;7.578;2022-08-19T12:06:13;4.97;;;4.67;;
47882;SDS011;37739;50.350;7.578;2022-08-19T12:08:43;4.40;;;4.10;;
47882;SDS011;37739;50.350;7.578;2022-08-19T12:11:12;4.20;;;3.90;;
47882;SDS011;37739;50.350;7.578;2022-08-19T12:13:38;4.50;;;4.20;;
47882;SDS011;37739;50.350;7.578;2022-08-19T12:16:14;4.90;;;4.50;;
47882;SDS011;37739;50.350;7.578;2022-08-19T12:18:51;5.63;;;5.13;;
47882;SDS011;37739;50.350;7.578;2022-08-19T12:21:22;5.87;;;5.37;;
47882;SDS011;37739;50.350;7.578;2022-08-19T12:23:54;6.67;;;6.17;;
47882;SDS011;37739;50.350;7.578;2022-08-19T12:26:23;5.20;;;4.90;;
47882;SDS011;37739;50.350;7.578;2022-08-19T12:28:51;5.50;;;5.10;;
47882;SDS011;37739;50.350;7.578;2022-08-19T12:31:17;5.00;;;4.70;;
47882;SDS011;37739;50.350;7.578;2022-08-19T12:33:44;5.57;;;5.17;;
47882;SDS011;37739;50.350;7.578;2022-08-19T12:36:14;5.40;;;5.00;;
47882;SDS011;37739;50.350;7.578;2022-08-19T12:38:44;5.67;;;5.17;;
47882;SDS011;37739;50.350;7.578;2022-08-19T12:41:13;6.23;;;5.83;;
47882;SDS011;37739;50.350;7.578;2022-08-19T12:43:43;7.33;;;5.50;;
47882;SDS011;37739;50.350;7.578;2022-08-19T12:46:09;5.57;;;5.10;;
47882;SDS011;37739;50.350;7.578;2022-08-19T12:48:37;6.30;;;5.73;;
47882;SDS011;37739;50.350;7.578;2022-08-19T12:51:07;6.03;;;5.53;;
47882;SDS011;37739;50.350;7.578;2022-08-19T12:53:40;5.67;;;5.27;;
47882;SDS011;37739;50.350;7.578;2022-08-19T12:56:09;5.87;;;5.37;;
47882;SDS011;37739;50.350;7.578;2022-08-19T12:58:36;5.43;;;5.03;;
47882;SDS011;37739;50.350;7.578;2022-08-19T13:01:08;6.30;;;5.80;;
47882;SDS011;37739;50.350;7.578;2022-08-19T13:03:38;5.87;;;5.40;;
47882;SDS011;37739;50.350;7.578;2022-08-19T13:06:03;5.20;;;4.90;;
47882;SDS011;37739;50.350;7.578;2022-08-19T13:08:29;6.23;;;5.73;;
47882;SDS011;37739;50.350;7.578;2022-08-19T13:10:54;6.10;;;5.60;;
47882;SDS011;37739;50.350;7.578;2022-08-19T13:13:23;6.30;;;5.80;;
47882;SDS011;37739;50.350;7.578;2022-08-19T13:15:59;5.70;;;5.30;;
47882;SDS011;37739;50.350;7.578;2022-08-19T13:18:27;6.60;;;6.10;;
47882;SDS011;37739;50.350;7.578;2022-08-19T13:20:52;7.10;;;6.57;;
47882;SDS011;37739;50.350;7.578;2022-08-19T13:23:23;6.17;;;5.77;;
47882;SDS011;37739;50.350;7.578;2022-08-19T13:25:55;5.20;;;4.80;;
47882;SDS011;37739;50.350;7.578;2022-08-19T13:28:24;5.70;;;5.30;;
47882;SDS011;37739;50.350;7.578;2022-08-19T13:31:09;5.80;;;5.40;;
47882;SDS011;37739;50.350;7.578;2022-08-19T13:33:53;5.40;;;5.00;;
47882;SDS011;37739;50.350;7.578;2022-08-19T13:36:19;5.80;;;5.37;;
47882;SDS011;37739;50.350;7.578;2022-08-19T13:38:46;6.30;;;5.80;;
47882;SDS011;37739;50.350;7.578;2022-08-19T13:41:12;5.80;;;5.40;;
47882;SDS011;37739;50.350;7.578;2022-08-19T13:43:40;5.20;;;4.80;;
47882;SDS011;37739;50.350;7.578;2022-08-19T13:46:08;5.30;;;4.90;;
47882;SDS011;37739;50.350;7.578;2022-08-19T13:48:35;5.27;;;4.83;;
47882;SDS011;37739;50.350;7.578;2022-08-19T13:51:00;5.50;;;5.00;;
47882;SDS011;37739;50.350;7.578;2022-08-19T13:53:29;4.47;;;4.17;;
47882;SDS011;37739;50.350;7.578;2022-08-19T13:55:55;4.87;;;4.20;;
47882;SDS011;37739;50.350;7.578;2022-08-19T13:58:21;4.97;;;4.57;;
47882;SDS011;37739;50.350;7.578;2022-08-19T14:00:47;5.23;;;4.83;;
47882;SDS011;37739;50.350;7.578;2022-08-19T14:03:13;5.00;;;4.70;;
47882;SDS011;37739;50.350;7.578;2022-08-19T14:05:43;5.53;;;4.97;;
47882;SDS011;37739;50.350;7.578;2022-08-19T14:08:08;4.97;;;4.57;;
47882;SDS011;37739;50.350;7.578;2022-08-19T14:10:34;4.70;;;4.40;;
47882;SDS011;37739;50.350;7.578;2022-08-19T14:13:02;5.10;;;4.70;;
47882;SDS011;37739;50.350;7.578;2022-08-19T14:15:31;5.23;;;4.73;;
47882;SDS011;37739;50.350;7.578;2022-08-19T14:17:56;4.80;;;4.50;;
47882;SDS011;37739;50.350;7.578;2022-08-19T14:20:26;5.47;;;5.07;;
47882;SDS011;37739;50.350;7.578;2022-08-19T14:22:54;4.90;;;4.50;;
47882;SDS011;37739;50.350;7.578;2022-08-19T14:25:24;5.70;;;5.00;;
47882;SDS011;37739;50.350;7.578;2022-08-19T14:27:52;6.40;;;5.90;;
47882;SDS011;37739;50.350;7.578;2022-08-19T14:30:21;5.90;;;5.40;;
47882;SDS011;37739;50.350;7.578;2022-08-19T14:32:54;5.80;;;5.40;;
47882;SDS011;37739;50.350;7.578;2022-08-19T14:35:20;5.20;;;4.90;;
47882;SDS011;37739;50.350;7.578;2022-08-19T14:37:51;5.37;;;5.03;;
47882;SDS011;37739;50.350;7.578;2022-08-19T14:40:20;5.63;;;5.23;;
47882;SDS011;37739;50.350;7.578;2022-08-19T14:42:50;5.30;;;5.00;;
47882;SDS011;37739;50.350;7.578;2022-08-19T14:45:23;5.60;;;5.20;;
47882;SDS011;37739;50.350;7.578;2022-08-19T14:47:51;5.20;;;4.90;;
47882;SDS011;37739;50.350;7.578;2022-08-19T14:50:17;6.27;;;5.80;;
47882;SDS011;37739;50.350;7.578;2022-08-19T14:52:43;5.90;;;5.50;;
47882;SDS011;37739;50.350;7.578;2022-08-19T14:55:08;6.00;;;5.60;;
47882;SDS011;37739;50.350;7.578;2022-08-19T14:57:34;6.13;;;5.73;;
47882;SDS011;37739;50.350;7.578;2022-08-19T15:00:04;6.70;;;6.30;;
47882;SDS011;37739;50.350;7.578;2022-08-19T15:02:36;6.17;;;5.77;;
47882;SDS011;37739;50.350;7.578;2022-08-19T15:05:02;6.70;;;6.20;;
47882;SDS011;37739;50.350;7.578;2022-08-19T15:07:31;6.83;;;6.43;;
47882;SDS011;37739;50.350;7.578;2022-08-19T15:09:56;7.90;;;7.30;;
47882;SDS011;37739;50.350;7.578;2022-08-19T15:12:22;6.90;;;6.40;;